Nearby METAR Reports

 

EHGG - Groningen/Eelde, Netherlands
Distance from station: WSW 29km
Updated: 20/01/2020 13:25
Partly cloudy
Partly cloudy
 Wind from SW
Wind: SW 11 km/h
Temperature: 7°C
Wind Chill: 5°C
Dew Point: 5°C
Humidity: 87%
Barometer: 1046 hPa
Clouds: Partly cloudy
Visibility: 10 km
2020/01/20 12:25 EHGG 201225Z AUTO 23006KT 9999 NSC 07/05 Q1046 NOSIG
ETNT - Wittmundhaven(Ga, Germany
Distance from station: ENE 57km
Updated: 20/01/2020 13:20
Mostly cloudy
Mostly cloudy
 Wind from SW
Wind: SW 13 km/h
Temperature: 6°C
Wind Chill: 3°C
Dew Point: 5°C
Humidity: 93%
Barometer: 1045 hPa
Clouds: Mostly cloudy
Visibility: 10 km
Cloud details: Mostly cloudy 2438 m
2020/01/20 12:20 ETNT 201220Z 23007KT 9999 BKN080 06/05 Q1045 BLU BLU
 
ETWM - Meppen, Germany
Distance from station: SSE 66km
Updated: 20/01/2020 13:20
Mostly cloudy
Mostly cloudy
 Wind from SW
Wind: SW 7 km/h
Temperature: 5°C
Wind Chill: 3°C
Dew Point: 4°C
Humidity: 93%
Barometer: 1046 hPa
Clouds: Mostly cloudy
Visibility: 9 km
Cloud details: Few Clouds 91 m
Partly cloudy 2713 m
Mostly cloudy 2804 m
2020/01/20 12:20 ETWM 201220Z 23004KT 9000 FEW003 SCT089 BKN092 05/04 Q1046 BLU
EHMA - Awg-1 Sea, Netherlands
Distance from station: WNW 70km
Updated: 20/01/2020 13:25
Partly cloudy
Partly cloudy
 Wind from SW
Wind: SW 24 km/h
Temperature: 7°C
Wind Chill: 3°C
Dew Point: 5°C
Humidity: 87%
Barometer: 1045 hPa
Clouds: Partly cloudy
Visibility: 10 km
2020/01/20 12:25 EHMA 201225Z AUTO 23013KT 9999 NSC 07/05 Q1045
 
EHLW - Leeuwarden Rnlaf, Netherlands
Distance from station: W 79km
Updated: 20/01/2020 13:28
Overcast
Overcast
 Wind from SW
Wind: SW 15 km/h
Temperature: 7°C
Wind Chill: 4°C
Dew Point: 6°C
Humidity: 93%
Barometer: 1046 hPa
Clouds: Overcast
Visibility: 10 km
Cloud details: Partly cloudy 2682 m
Overcast 2926 m
2020/01/20 12:28 EHLW 201228Z AUTO 23008KT 9999 SCT088 OVC096 07/06 Q1046 BLU 23009KT CAVOK RMK R23